Time;durP1;ratioP1;P1;durP2;ratioP2;P2;SDS_P1;SDS_P2;PMS_P1;PMS_P2;Temp;Humidity;BMP_temperature;BMP_pressure;BME280_temperature;BME280_humidity;BME280_pressure;Samples;Min_cycle;Max_cycle;Signal;HPM_P1;HPM_P2
2021/03/30 00:00:34;;;;;;;11.07;2.10;;;3.30;38.90;;;;;;4342338;32;20123;-34
2021/03/30 00:03:01;;;;;;;8.23;2.40;;;3.30;39.00;;;;;;4327590;33;20106;-36
2021/03/30 00:05:28;;;;;;;6.57;1.97;;;3.30;39.00;;;;;;4326483;33;20091;-36
2021/03/30 00:07:54;;;;;;;6.43;2.93;;;3.20;39.70;;;;;;4326339;33;20084;-35
2021/03/30 00:10:23;;;;;;;6.50;2.50;;;3.20;39.10;;;;;;4326688;33;20075;-36
2021/03/30 00:12:49;;;;;;;7.07;1.90;;;3.10;39.10;;;;;;4326451;33;20519;-36
2021/03/30 00:15:16;;;;;;;13.57;2.73;;;3.00;39.20;;;;;;4326825;33;20090;-36
2021/03/30 00:17:43;;;;;;;10.67;3.63;;;3.00;39.50;;;;;;4314422;33;20118;-36
2021/03/30 00:20:12;;;;;;;9.83;2.20;;;2.90;39.50;;;;;;4326723;33;20617;-35
2021/03/30 00:22:39;;;;;;;4.77;2.67;;;2.90;39.60;;;;;;4303375;33;20545;-35
2021/03/30 00:25:07;;;;;;;3.67;1.77;;;2.90;39.70;;;;;;4325990;33;20487;-35
2021/03/30 00:27:34;;;;;;;5.57;1.53;;;2.80;39.60;;;;;;4314087;33;20581;-36
2021/03/30 00:30:01;;;;;;;8.77;1.97;;;2.80;39.50;;;;;;4326417;33;20082;-35
2021/03/30 00:32:27;;;;;;;7.73;2.20;;;2.80;39.60;;;;;;4326246;33;20133;-35
2021/03/30 00:34:54;;;;;;;4.97;2.07;;;2.70;39.70;;;;;;4340224;32;20150;-35
2021/03/30 00:37:20;;;;;;;6.43;2.70;;;2.70;39.80;;;;;;4358610;32;20054;-35
2021/03/30 00:39:47;;;;;;;13.17;3.10;;;2.60;40.70;;;;;;4358952;32;20067;-35
2021/03/30 00:42:24;;;;;;;15.33;2.90;;;2.60;39.90;;;;;;4357884;32;20065;-36
2021/03/30 00:44:52;;;;;;;10.50;2.30;;;2.60;40.00;;;;;;4356110;32;20152;-36
2021/03/30 00:47:20;;;;;;;17.73;3.77;;;2.50;39.90;;;;;;4358207;32;20184;-35
2021/03/30 00:49:49;;;;;;;8.53;3.23;;;2.40;40.00;;;;;;4358179;32;20100;-34
2021/03/30 00:52:17;;;;;;;6.93;2.47;;;2.40;40.20;;;;;;4358207;32;20093;-35
2021/03/30 00:54:44;;;;;;;17.73;3.60;;;2.30;40.30;;;;;;4344346;32;20063;-35
2021/03/30 00:57:10;;;;;;;31.20;5.73;;;2.30;40.40;;;;;;4344794;32;20217;-35
2021/03/30 00:59:37;;;;;;;24.97;6.00;;;2.30;41.10;;;;;;4356998;32;20081;-35
2021/03/30 01:02:04;;;;;;;15.10;3.90;;;2.20;40.50;;;;;;4356275;32;20105;-35
2021/03/30 01:04:30;;;;;;;18.20;4.30;;;2.20;40.60;;;;;;4357976;32;20079;-36
2021/03/30 01:06:57;;;;;;;12.73;4.57;;;2.20;40.60;;;;;;4356455;32;20077;-35
2021/03/30 01:09:58;;;;;;;17.17;5.00;;;2.10;40.50;;;;;;4357854;32;20073;-35
2021/03/30 01:12:53;;;;;;;15.63;4.27;;;2.10;40.60;;;;;;4356623;32;20058;-35
2021/03/30 01:15:50;;;;;;;12.48;3.85;;;2.10;40.60;;;;;;4316018;33;20193;-33
2021/03/30 01:19:18;;;;;;;15.37;4.13;;;2.00;40.50;;;;;;4311104;33;20535;-35
2021/03/30 01:22:26;;;;;;;17.57;4.17;;;2.00;40.70;;;;;;4244471;33;20111;-34
2021/03/30 01:24:57;;;;;;;14.07;3.23;;;1.90;40.60;;;;;;4281783;33;20068;-34
2021/03/30 01:27:50;;;;;;;5.10;2.47;;;1.90;40.50;;;;;;4270228;33;20070;-34
2021/03/30 01:30:19;;;;;;;12.00;2.17;;;1.90;40.80;;;;;;4272215;33;20137;-34
2021/03/30 01:33:12;;;;;;;14.23;3.60;;;1.80;40.70;;;;;;4258286;33;20216;-35
2021/03/30 01:35:39;;;;;;;18.80;4.50;;;1.70;40.90;;;;;;4260979;33;20077;-34
2021/03/30 01:38:07;;;;;;;14.13;3.93;;;1.70;40.70;;;;;;4253219;33;20068;-34
2021/03/30 01:40:34;;;;;;;23.43;4.87;;;1.70;40.90;;;;;;4241074;33;20569;-34
2021/03/30 01:43:02;;;;;;;11.30;4.00;;;1.60;40.90;;;;;;4253470;33;20088;-35
2021/03/30 01:45:28;;;;;;;12.27;4.10;;;1.60;41.00;;;;;;4256182;33;20486;-34
2021/03/30 01:47:55;;;;;;;15.60;4.00;;;1.60;41.00;;;;;;4258063;33;20075;-35
2021/03/30 01:50:21;;;;;;;23.13;4.47;;;1.60;41.10;;;;;;4284633;33;20504;-35
2021/03/30 01:52:49;;;;;;;9.60;3.53;;;1.60;41.10;;;;;;4298341;33;20063;-35
2021/03/30 01:55:16;;;;;;;20.77;4.13;;;1.60;41.10;;;;;;4287135;33;20110;-34
2021/03/30 01:57:51;;;;;;;23.10;3.43;;;1.60;41.10;;;;;;4313662;33;20074;-35
2021/03/30 02:00:19;;;;;;;;;;;1.60;41.20;;;;;;4305374;33;20565;-35
2021/03/30 02:02:46;;;;;;;20.17;3.67;;;1.60;40.80;;;;;;4316258;33;20022;-37
2021/03/30 02:05:14;;;;;;;29.03;4.37;;;1.60;40.70;;;;;;4303561;33;20557;-34
2021/03/30 02:07:44;;;;;;;17.83;4.33;;;1.60;40.90;;;;;;4342718;33;20475;-35
2021/03/30 02:10:21;;;;;;;27.70;4.77;;;1.60;41.20;;;;;;4319887;33;20071;-33
2021/03/30 02:12:47;;;;;;;25.50;5.80;;;1.60;41.20;;;;;;4327763;33;20118;-34
2021/03/30 02:15:15;;;;;;;39.43;5.60;;;1.50;41.20;;;;;;4315672;33;20667;-35
2021/03/30 02:18:15;;;;;;;29.63;5.53;;;1.50;41.50;;;;;;4316035;33;20070;-34
2021/03/30 02:20:44;;;;;;;21.53;4.93;;;1.50;41.90;;;;;;4298182;33;20149;-35
2021/03/30 02:23:18;;;;;;;13.60;2.57;;;1.50;41.70;;;;;;4286868;33;20084;-35
2021/03/30 02:25:47;;;;;;;10.60;2.43;;;1.50;41.70;;;;;;4287204;33;20072;-35
2021/03/30 02:28:16;;;;;;;12.80;3.20;;;1.50;41.60;;;;;;4275016;33;20076;-33
2021/03/30 02:30:43;;;;;;;8.77;2.00;;;1.40;41.50;;;;;;4298701;33;20088;-35
2021/03/30 02:33:13;;;;;;;12.27;2.23;;;1.40;41.60;;;;;;4286481;33;20672;-34
2021/03/30 02:35:39;;;;;;;12.43;3.10;;;1.30;41.70;;;;;;4272313;33;20211;-35
2021/03/30 02:38:07;;;;;;;23.03;3.83;;;1.30;41.90;;;;;;4296856;33;20092;-34
2021/03/30 02:40:33;;;;;;;26.43;5.30;;;1.30;42.00;;;;;;4307532;33;20082;-36
2021/03/30 02:43:00;;;;;;;19.97;4.63;;;1.30;42.20;;;;;;4308038;33;20068;-35
2021/03/30 02:45:28;;;;;;;16.73;4.33;;;1.30;42.60;;;;;;4308385;33;20072;-34
2021/03/30 02:47:59;;;;;;;20.83;4.67;;;1.40;42.90;;;;;;4307992;33;20068;-36
2021/03/30 02:50:26;;;;;;;23.90;4.07;;;1.40;42.60;;;;;;4287522;33;20564;-36
2021/03/30 02:52:54;;;;;;;24.23;5.27;;;1.50;42.50;;;;;;4280898;33;20080;-34
2021/03/30 02:55:22;;;;;;;19.23;4.33;;;1.50;42.50;;;;;;4286816;33;20100;-36
2021/03/30 02:57:49;;;;;;;39.90;5.97;;;1.60;43.60;;;;;;4301396;33;20074;-36
2021/03/30 03:00:16;;;;;;;27.63;6.03;;;1.80;43.40;;;;;;4312624;33;20150;-36
2021/03/30 03:02:43;;;;;;;30.93;5.23;;;1.90;43.70;;;;;;4300803;33;20222;-35
2021/03/30 03:05:11;;;;;;;16.90;3.47;;;2.10;43.60;;;;;;4312564;33;20496;-35
2021/03/30 03:07:38;;;;;;;22.53;3.43;;;2.30;43.50;;;;;;4300423;33;20209;-36
2021/03/30 03:10:09;;;;;;;35.30;5.87;;;2.50;43.30;;;;;;4312888;33;20120;-36
2021/03/30 03:12:37;;;;;;;37.00;7.83;;;2.80;43.30;;;;;;4312425;33;20122;-36
2021/03/30 03:15:06;;;;;;;42.63;6.70;;;3.00;43.10;;;;;;4312728;33;20087;-36
2021/03/30 03:17:33;;;;;;;43.67;7.47;;;3.20;43.00;;;;;;4300645;33;20146;-35
2021/03/30 03:19:59;;;;;;;53.07;8.30;;;3.50;42.80;;;;;;4300488;33;20187;-35
2021/03/30 03:22:26;;;;;;;112.40;11.03;;;3.70;42.70;;;;;;4288156;33;20520;-35
2021/03/30 03:24:52;;;;;;;61.13;6.77;;;3.90;42.60;;;;;;4300401;33;20083;-35
2021/03/30 03:27:19;;;;;;;34.77;6.13;;;4.10;42.50;;;;;;4288804;33;20490;-35
2021/03/30 03:29:45;;;;;;;45.20;7.53;;;4.30;42.30;;;;;;4321046;33;20047;-36
2021/03/30 03:32:12;;;;;;;52.10;8.60;;;4.60;42.10;;;;;;4302445;33;20169;-37
2021/03/30 03:34:39;;;;;;;52.50;7.30;;;4.80;42.20;;;;;;4326730;33;20103;-36
2021/03/30 03:37:05;;;;;;;48.60;8.03;;;5.20;41.90;;;;;;4327173;33;20086;-35
2021/03/30 03:39:33;;;;;;;48.43;7.20;;;5.50;41.80;;;;;;4314914;33;20527;-35
2021/03/30 03:41:59;;;;;;;33.10;6.30;;;5.90;41.60;;;;;;4302977;33;20172;-36
2021/03/30 03:44:29;;;;;;;38.73;7.57;;;6.30;41.10;;;;;;4285221;33;20068;-36
2021/03/30 03:46:55;;;;;;;57.43;7.60;;;6.60;40.60;;;;;;4286014;33;20083;-36
2021/03/30 03:49:25;;;;;;;80.53;7.87;;;6.90;40.10;;;;;;4286140;33;20074;-36
2021/03/30 03:52:11;;;;;;;51.10;4.83;;;7.20;39.30;;;;;;4298385;33;20099;-36
2021/03/30 03:54:39;;;;;;;60.97;6.97;;;7.40;38.70;;;;;;4297948;33;20115;-36
2021/03/30 03:57:45;;;;;;;40.20;5.40;;;7.60;38.30;;;;;;4285939;33;20497;-36
2021/03/30 04:00:12;;;;;;;35.23;6.07;;;7.80;37.80;;;;;;4283968;33;20231;-37
2021/03/30 04:02:45;;;;;;;23.83;3.17;;;8.10;37.40;;;;;;4305434;33;20066;-36
2021/03/30 04:05:18;;;;;;;34.73;4.97;;;8.40;37.60;;;;;;4303340;33;20082;-37
2021/03/30 04:08:00;;;;;;;3.87;1.20;;;8.60;33.50;;;;;;4302720;33;20083;-37
2021/03/30 04:10:28;;;;;;;2.53;1.30;;;8.70;30.70;;;;;;4326932;33;20139;-36
2021/03/30 04:12:54;;;;;;;5.07;1.20;;;8.80;30.00;;;;;;4326671;33;20079;-36
2021/03/30 04:15:24;;;;;;;9.67;2.97;;;8.70;29.80;;;;;;4326830;33;20154;-37
2021/03/30 04:17:51;;;;;;;2.67;1.00;;;8.60;29.70;;;;;;4326314;33;20106;-36
2021/03/30 04:20:19;;;;;;;9.67;2.60;;;8.60;29.90;;;;;;4326098;33;20160;-38
2021/03/30 04:22:52;;;;;;;11.43;3.17;;;8.70;29.10;;;;;;4341047;33;20083;-37
2021/03/30 04:25:18;;;;;;;26.40;3.20;;;8.70;28.90;;;;;;4343499;32;20074;-37
2021/03/30 04:27:45;;;;;;;12.13;3.57;;;8.70;28.70;;;;;;4342032;33;20059;-37
2021/03/30 04:30:13;;;;;;;17.70;4.50;;;8.60;28.60;;;;;;4341817;33;20075;-37
2021/03/30 04:32:39;;;;;;;14.90;3.00;;;8.60;28.50;;;;;;4343478;32;20067;-37
2021/03/30 04:35:06;;;;;;;11.03;2.67;;;8.60;28.30;;;;;;4343435;33;20070;-38
2021/03/30 04:37:33;;;;;;;16.40;3.27;;;8.60;28.40;;;;;;4343529;33;20141;-37
2021/03/30 04:39:59;;;;;;;5.77;2.87;;;8.60;28.40;;;;;;4343329;33;20179;-37
2021/03/30 04:42:26;;;;;;;9.47;2.03;;;8.60;28.40;;;;;;4343355;33;20070;-37
2021/03/30 04:44:53;;;;;;;1.93;1.00;;;8.60;28.30;;;;;;4342241;33;20519;-36
2021/03/30 04:47:21;;;;;;;9.20;2.27;;;8.60;28.40;;;;;;4343375;33;20464;-39
2021/03/30 04:49:48;;;;;;;6.47;2.13;;;8.70;28.40;;;;;;4343547;33;20090;-38
2021/03/30 04:52:14;;;;;;;9.27;2.37;;;8.70;28.10;;;;;;4341588;33;20179;-38
2021/03/30 04:54:41;;;;;;;8.43;2.70;;;8.70;28.10;;;;;;4341864;33;20092;-38
2021/03/30 04:57:08;;;;;;;8.27;2.73;;;8.70;27.90;;;;;;4341302;33;20444;-36
2021/03/30 04:59:34;;;;;;;8.13;2.67;;;8.60;28.00;;;;;;4343679;33;20158;-37
2021/03/30 05:02:01;;;;;;;9.37;2.10;;;8.60;27.90;;;;;;4343431;33;20074;-37
2021/03/30 05:04:28;;;;;;;11.70;4.23;;;8.50;27.60;;;;;;4343234;33;20538;-38
2021/03/30 05:06:54;;;;;;;6.57;3.03;;;8.40;27.60;;;;;;4343632;33;20089;-37
2021/03/30 05:09:21;;;;;;;14.50;2.23;;;8.40;27.80;;;;;;4341716;33;20129;-37
2021/03/30 05:11:48;;;;;;;3.03;1.13;;;8.40;28.00;;;;;;4341282;33;20475;-37
2021/03/30 05:14:14;;;;;;;8.60;1.70;;;8.40;28.00;;;;;;4341389;33;20078;-37
2021/03/30 05:16:41;;;;;;;6.60;1.53;;;8.50;27.80;;;;;;4343158;33;20067;-37
2021/03/30 05:19:07;;;;;;;2.93;1.03;;;8.60;27.90;;;;;;4341806;33;20148;-38
2021/03/30 05:21:34;;;;;;;14.00;1.47;;;8.70;27.70;;;;;;4343344;33;20098;-38
2021/03/30 05:24:00;;;;;;;5.83;1.80;;;8.70;27.40;;;;;;4342827;33;20138;-38
2021/03/30 05:26:27;;;;;;;10.50;1.27;;;8.80;27.30;;;;;;4343318;33;20082;-37
2021/03/30 05:28:53;;;;;;;7.40;2.20;;;8.80;27.40;;;;;;4343098;33;20063;-37
2021/03/30 05:31:20;;;;;;;5.10;0.93;;;8.90;27.20;;;;;;4345545;32;20588;-37
2021/03/30 05:33:46;;;;;;;7.90;1.73;;;9.00;27.40;;;;;;4345969;33;20068;-37
2021/03/30 05:36:14;;;;;;;9.43;1.53;;;9.20;27.20;;;;;;4356156;32;20531;-38
2021/03/30 05:38:41;;;;;;;4.87;0.60;;;9.40;27.10;;;;;;4346932;32;20062;-38
2021/03/30 05:41:07;;;;;;;5.97;0.70;;;9.70;27.10;;;;;;4360598;32;20169;-39
2021/03/30 05:43:36;;;;;;;19.10;1.80;;;10.10;26.80;;;;;;4360888;32;20070;-39
2021/03/30 05:46:03;;;;;;;2.70;0.45;;;10.50;26.50;;;;;;4359647;32;20065;-38
2021/03/30 05:48:31;;;;;;;14.45;2.60;;;10.90;26.30;;;;;;4361128;32;20105;-38
2021/03/30 05:50:58;;;;;;;13.32;2.20;;;11.30;26.20;;;;;;4343779;33;20530;-38
2021/03/30 05:53:26;;;;;;;2.97;1.37;;;11.60;25.70;;;;;;4343279;33;20648;-39
2021/03/30 05:56:03;;;;;;;12.48;3.17;;;12.00;25.50;;;;;;4330975;33;20088;-39
2021/03/30 05:58:32;;;;;;;4.25;1.50;;;12.30;25.10;;;;;;4343986;33;20090;-39
2021/03/30 06:01:04;;;;;;;18.87;2.60;;;12.70;25.00;;;;;;4343670;33;20067;-40
2021/03/30 06:03:32;;;;;;;10.98;3.25;;;12.90;25.10;;;;;;4332031;33;20114;-39
2021/03/30 06:06:00;;;;;;;31.48;3.35;;;13.10;24.80;;;;;;4331581;33;20120;-40
2021/03/30 06:08:29;;;;;;;10.05;3.10;;;13.30;24.30;;;;;;4331260;33;20079;-40
2021/03/30 06:11:07;;;;;;;14.38;3.40;;;13.50;24.20;;;;;;4343400;33;20051;-39
2021/03/30 06:13:55;;;;;;;16.65;3.28;;;13.70;24.40;;;;;;4343114;33;20081;-41
2021/03/30 06:16:36;;;;;;;12.18;3.00;;;14.00;24.50;;;;;;4343217;33;20082;-40
2021/03/30 06:19:16;;;;;;;7.60;2.33;;;14.20;23.70;;;;;;4343905;33;20553;-39
2021/03/30 06:22:12;;;;;;;17.48;4.05;;;14.40;23.70;;;;;;4350510;32;20062;-42
2021/03/30 06:24:38;;;;;;;9.15;2.75;;;14.50;23.50;;;;;;4347904;32;20535;-41
2021/03/30 06:27:05;;;;;;;13.60;3.08;;;14.60;23.20;;;;;;4360412;32;20548;-40
2021/03/30 06:29:36;;;;;;;15.68;3.53;;;14.90;23.00;;;;;;4360792;32;20074;-41
2021/03/30 06:32:13;;;;;;;26.42;4.70;;;15.20;23.40;;;;;;4360602;32;20167;-40
2021/03/30 06:34:43;;;;;;;73.93;8.57;;;15.60;24.40;;;;;;4359405;32;20055;-41
2021/03/30 06:37:28;;;;;;;27.02;4.47;;;15.90;24.90;;;;;;4345403;33;20118;-40
2021/03/30 06:40:20;;;;;;;19.55;3.85;;;16.20;24.50;;;;;;4345684;33;20125;-41
2021/03/30 06:42:56;;;;;;;29.63;4.05;;;16.30;24.50;;;;;;4344453;32;20163;-41
2021/03/30 06:45:29;;;;;;;42.17;5.28;;;16.50;24.60;;;;;;4345179;33;20187;-41
2021/03/30 06:47:58;;;;;;;59.35;7.30;;;16.40;24.80;;;;;;4343667;33;20109;-41
2021/03/30 06:50:33;;;;;;;30.95;4.35;;;16.30;25.00;;;;;;4319633;33;20102;-42
2021/03/30 06:53:14;;;;;;;;;;;16.20;24.90;;;;;;4345659;33;20073;-42
2021/03/30 06:55:49;;;;;;;56.45;8.57;;;16.20;25.80;;;;;;4344653;32;19963;-40
2021/03/30 06:58:17;;;;;;;36.53;4.37;;;16.20;25.30;;;;;;4345264;32;20148;-40
2021/03/30 07:00:45;;;;;;;33.47;5.62;;;16.30;25.40;;;;;;4343517;33;20070;-41
2021/03/30 07:03:17;;;;;;;47.67;5.82;;;16.40;25.70;;;;;;4344786;33;20548;-39
2021/03/30 07:05:48;;;;;;;59.30;5.57;;;16.30;25.70;;;;;;4343452;33;20164;-39
2021/03/30 07:08:20;;;;;;;28.27;4.22;;;16.30;26.10;;;;;;4344773;33;20610;-40
2021/03/30 07:10:54;;;;;;;42.90;5.32;;;16.30;26.10;;;;;;4344300;33;20094;-41
2021/03/30 07:13:23;;;;;;;31.15;6.35;;;16.40;26.20;;;;;;4344182;33;20075;-40
2021/03/30 07:16:09;;;;;;;15.27;3.85;;;16.50;26.00;;;;;;4344940;33;20059;-41
2021/03/30 07:18:45;;;;;;;57.50;7.75;;;16.50;25.60;;;;;;4320766;33;20475;-38
2021/03/30 07:21:16;;;;;;;;;;;16.60;25.40;;;;;;4320793;33;20085;-39
2021/03/30 07:23:46;;;;;;;26.67;4.97;;;16.70;25.70;;;;;;4343033;33;19974;-39
2021/03/30 07:26:21;;;;;;;80.32;9.20;;;16.90;25.40;;;;;;4343221;33;20078;-40
2021/03/30 07:29:05;;;;;;;;;;;17.20;25.00;;;;;;4344473;33;20132;-41
2021/03/30 07:31:54;;;;;;;42.58;7.00;;;17.50;23.80;;;;;;4344286;32;20004;-41
2021/03/30 07:34:28;;;;;;;14.32;1.48;;;17.80;23.90;;;;;;4328759;33;20175;-42
2021/03/30 07:36:59;;;;;;;18.37;3.35;;;17.80;21.10;;;;;;4343158;33;20515;-42
2021/03/30 07:39:28;;;;;;;11.60;2.33;;;17.80;21.10;;;;;;4344236;32;20504;-41
2021/03/30 07:41:55;;;;;;;1.35;0.95;;;17.90;21.10;;;;;;4330506;33;20101;-42
2021/03/30 07:44:21;;;;;;;6.07;3.50;;;17.90;20.60;;;;;;4342141;33;20062;-41
2021/03/30 07:46:48;;;;;;;25.88;3.83;;;18.00;20.40;;;;;;4344090;32;20144;-42
2021/03/30 07:49:15;;;;;;;11.77;2.42;;;18.10;20.40;;;;;;4330622;33;20522;-42
2021/03/30 07:51:45;;;;;;;2.55;1.05;;;18.00;20.10;;;;;;4343848;32;20062;-41
2021/03/30 07:54:15;;;;;;;14.00;2.70;;;18.10;19.90;;;;;;4343979;32;20058;-40
2021/03/30 07:56:50;;;;;;;9.60;1.92;;;18.10;19.90;;;;;;4343706;32;20487;-41
2021/03/30 07:59:43;;;;;;;12.07;2.70;;;18.10;20.20;;;;;;4344066;32;20066;-40
2021/03/30 08:02:13;;;;;;;7.78;1.62;;;18.10;19.90;;;;;;4343879;32;20514;-39
2021/03/30 08:05:10;;;;;;;7.85;1.50;;;18.00;19.90;;;;;;4342596;33;20070;-39
2021/03/30 08:07:48;;;;;;;20.27;2.47;;;18.00;19.90;;;;;;4342831;33;20155;-42
2021/03/30 08:10:34;;;;;;;5.35;0.82;;;18.00;19.40;;;;;;4343940;32;20086;-40
2021/03/30 08:13:24;;;;;;;6.47;1.40;;;17.90;19.60;;;;;;4343536;32;20083;-41
2021/03/30 08:16:01;;;;;;;18.55;2.55;;;17.80;20.30;;;;;;4344116;32;20416;-39
2021/03/30 08:18:37;;;;;;;2.85;0.55;;;17.80;20.30;;;;;;4344110;32;20462;-42
2021/03/30 08:21:08;;;;;;;5.37;1.73;;;17.70;20.10;;;;;;4342324;33;20114;-41
2021/03/30 08:23:53;;;;;;;1.25;0.73;;;17.60;20.10;;;;;;4343867;32;20074;-40
2021/03/30 08:26:24;;;;;;;20.17;1.92;;;17.50;20.50;;;;;;4343732;32;20085;-42
2021/03/30 08:28:56;;;;;;;4.53;0.93;;;17.50;20.50;;;;;;4343862;32;20105;-41
2021/03/30 08:31:48;;;;;;;14.00;1.10;;;17.50;20.20;;;;;;4343836;32;20063;-40
2021/03/30 08:34:24;;;;;;;12.45;1.08;;;17.50;20.20;;;;;;4343569;32;20147;-41
2021/03/30 08:36:57;;;;;;;4.32;1.17;;;17.50;19.60;;;;;;4357626;32;20169;-42
2021/03/30 08:39:24;;;;;;;1.20;0.62;;;17.50;19.70;;;;;;4358224;32;20174;-41
2021/03/30 08:41:56;;;;;;;4.70;0.50;;;17.40;19.70;;;;;;4358630;32;20082;-40
2021/03/30 08:44:32;;;;;;;3.05;0.60;;;17.40;19.70;;;;;;4358586;32;20494;-42
2021/03/30 08:47:00;;;;;;;3.08;0.90;;;17.50;19.70;;;;;;4358264;32;20108;-41
2021/03/30 08:49:40;;;;;;;0.20;0.20;;;17.50;20.00;;;;;;4358200;32;20167;-42
2021/03/30 08:52:15;;;;;;;7.32;1.95;;;17.50;20.40;;;;;;4358453;32;20521;-40
2021/03/30 08:54:54;;;;;;;6.35;1.40;;;17.60;20.10;;;;;;4358078;32;20083;-40
2021/03/30 08:57:34;;;;;;;10.70;1.10;;;17.70;20.30;;;;;;4358329;32;20093;-42
2021/03/30 09:00:12;;;;;;;4.22;1.17;;;17.90;20.20;;;;;;4358435;32;20535;-42
2021/03/30 09:02:39;;;;;;;1.17;0.40;;;18.10;20.00;;;;;;4358601;32;20074;-41
2021/03/30 09:05:18;;;;;;;4.03;1.05;;;18.20;19.50;;;;;;4340111;33;20098;-41
2021/03/30 09:07:46;;;;;;;12.27;2.60;;;18.20;19.60;;;;;;4341126;33;20071;-40
2021/03/30 09:10:14;;;;;;;1.58;1.45;;;18.20;19.70;;;;;;4328674;33;20545;-39
2021/03/30 09:12:41;;;;;;;9.57;1.40;;;18.10;19.90;;;;;;4340744;33;20188;-41
2021/03/30 09:15:10;;;;;;;17.55;2.17;;;18.20;19.90;;;;;;4328425;33;20075;-41
2021/03/30 09:18:00;;;;;;;0.95;0.60;;;18.20;19.60;;;;;;4340700;33;20525;-41
2021/03/30 09:20:34;;;;;;;1.08;0.32;;;18.30;20.00;;;;;;4330850;33;20104;-42
2021/03/30 09:23:13;;;;;;;3.45;0.85;;;18.30;19.50;;;;;;4340754;33;20063;-42
2021/03/30 09:25:44;;;;;;;7.53;0.98;;;18.30;19.10;;;;;;4340827;33;20090;-42
2021/03/30 09:28:20;;;;;;;2.05;0.90;;;18.30;19.20;;;;;;4329119;33;20545;-40
2021/03/30 09:30:47;;;;;;;14.93;1.30;;;18.30;19.00;;;;;;4340963;33;20146;-41
2021/03/30 09:33:14;;;;;;;5.97;0.82;;;18.30;18.50;;;;;;4340981;33;20145;-41
2021/03/30 09:35:40;;;;;;;1.95;0.40;;;18.30;18.50;;;;;;4319216;33;20074;-41
2021/03/30 09:38:07;;;;;;;0.82;0.52;;;18.30;18.30;;;;;;4343280;33;20063;-41
2021/03/30 09:40:40;;;;;;;4.97;0.90;;;18.40;18.40;;;;;;4341379;33;20063;-42
2021/03/30 09:43:18;;;;;;;0.85;0.43;;;18.50;18.30;;;;;;4343121;33;20073;-42
2021/03/30 09:45:46;;;;;;;5.87;0.95;;;18.50;18.00;;;;;;4341759;33;20198;-40
2021/03/30 09:48:17;;;;;;;3.53;1.00;;;18.60;18.20;;;;;;4341828;33;20067;-42
2021/03/30 09:50:45;;;;;;;4.05;0.60;;;18.60;18.50;;;;;;4341564;33;20609;-42
2021/03/30 09:53:12;;;;;;;7.35;1.73;;;18.70;18.30;;;;;;4329800;33;20063;-41
2021/03/30 09:55:47;;;;;;;12.95;2.10;;;18.70;18.50;;;;;;4342906;33;20063;-41
2021/03/30 09:58:18;;;;;;;2.17;0.50;;;18.80;18.20;;;;;;4343337;33;20150;-41
2021/03/30 10:00:52;;;;;;;0.75;0.40;;;18.80;17.60;;;;;;4343455;33;20148;-42
2021/03/30 10:03:19;;;;;;;1.48;1.00;;;18.80;17.00;;;;;;4330225;33;20066;-41
2021/03/30 10:05:46;;;;;;;8.05;1.25;;;19.00;16.80;;;;;;4341570;33;20144;-37
2021/03/30 10:08:29;;;;;;;4.07;0.75;;;19.20;17.60;;;;;;4341140;33;20055;-41
2021/03/30 10:10:59;;;;;;;1.75;0.80;;;19.30;17.70;;;;;;4342926;33;20556;-41
2021/03/30 10:13:35;;;;;;;1.30;0.57;;;19.40;17.00;;;;;;4342659;33;20579;-41
2021/03/30 10:16:07;;;;;;;1.48;0.35;;;19.40;17.10;;;;;;4342376;32;20214;-42
2021/03/30 10:18:37;;;;;;;8.65;0.65;;;19.40;17.30;;;;;;4343626;33;20098;-42
2021/03/30 10:21:12;;;;;;;1.75;0.32;;;19.40;17.10;;;;;;4345635;33;20066;-42
2021/03/30 10:23:52;;;;;;;5.90;0.60;;;19.40;17.60;;;;;;4343595;33;20245;-42
2021/03/30 10:26:26;;;;;;;1.73;0.40;;;19.40;17.30;;;;;;4345447;33;20519;-41
2021/03/30 10:29:02;;;;;;;1.83;0.75;;;19.30;17.60;;;;;;4332275;33;20074;-42
2021/03/30 10:31:35;;;;;;;2.97;0.77;;;19.30;17.90;;;;;;4345368;33;20074;-40
2021/03/30 10:34:02;;;;;;;0.10;0.10;;;19.20;18.00;;;;;;4345206;33;20462;-42
2021/03/30 10:36:29;;;;;;;8.32;0.88;;;19.20;17.50;;;;;;4357126;32;20100;-40
2021/03/30 10:39:09;;;;;;;0.55;0.32;;;19.30;17.30;;;;;;4360470;32;20186;-41
2021/03/30 10:41:38;;;;;;;0.22;0.20;;;19.40;17.40;;;;;;4358260;32;20501;-41
2021/03/30 10:44:05;;;;;;;4.55;0.77;;;19.40;17.40;;;;;;4358605;32;20587;-42
2021/03/30 10:46:48;;;;;;;5.10;0.60;;;19.40;17.50;;;;;;4360065;32;20553;-42
2021/03/30 10:49:15;;;;;;;9.68;0.80;;;19.30;17.80;;;;;;4360513;32;20066;-42
2021/03/30 10:51:43;;;;;;;0.93;0.20;;;19.30;17.50;;;;;;4359601;32;20066;-43
2021/03/30 10:54:12;;;;;;;9.70;0.95;;;19.20;16.90;;;;;;4359943;32;20536;-42
2021/03/30 10:56:41;;;;;;;17.30;1.90;;;19.20;17.20;;;;;;4358390;32;20102;-42
2021/03/30 10:59:15;;;;;;;0.45;0.22;;;19.20;17.80;;;;;;4358049;32;20047;-42
2021/03/30 11:01:42;;;;;;;2.35;0.80;;;19.10;17.80;;;;;;4359823;32;20523;-42
2021/03/30 11:04:09;;;;;;;4.35;0.80;;;19.10;17.40;;;;;;4359341;32;20105;-42
2021/03/30 11:06:35;;;;;;;0.20;0.20;;;19.10;17.20;;;;;;4359745;32;20469;-42
2021/03/30 11:09:02;;;;;;;3.10;0.28;;;19.20;17.30;;;;;;4358219;32;20565;-42
2021/03/30 11:11:29;;;;;;;6.53;1.23;;;19.20;17.80;;;;;;4341834;33;20157;-41
2021/03/30 11:13:55;;;;;;;47.03;3.00;;;19.30;17.40;;;;;;4342015;33;20082;-42
2021/03/30 11:16:22;;;;;;;2.35;0.70;;;19.40;18.60;;;;;;4342135;33;20070;-41
2021/03/30 11:18:48;;;;;;;6.80;1.40;;;19.40;17.80;;;;;;4342424;33;20617;-42
2021/03/30 11:21:16;;;;;;;2.22;0.70;;;19.50;17.80;;;;;;4342298;33;20514;-42
2021/03/30 11:23:43;;;;;;;1.62;1.12;;;19.50;17.50;;;;;;4341801;33;20059;-43
2021/03/30 11:26:12;;;;;;;3.35;0.55;;;19.50;17.00;;;;;;4330264;33;20550;-41
2021/03/30 11:28:41;;;;;;;7.68;1.27;;;19.60;16.90;;;;;;4341665;33;20066;-40
2021/03/30 11:31:17;;;;;;;6.40;0.73;;;19.60;16.90;;;;;;4341815;33;20085;-41
2021/03/30 11:33:47;;;;;;;4.50;1.08;;;19.50;17.10;;;;;;4342229;33;20063;-42
2021/03/30 11:36:16;;;;;;;6.45;1.10;;;19.40;17.30;;;;;;4331487;33;20550;-41
2021/03/30 11:38:43;;;;;;;11.02;0.65;;;19.40;17.40;;;;;;4327141;33;20148;-41
2021/03/30 11:41:10;;;;;;;1.62;0.60;;;19.30;16.90;;;;;;4314847;33;20108;-42
2021/03/30 11:43:36;;;;;;;7.28;0.60;;;19.40;16.70;;;;;;4343700;33;20075;-41
2021/03/30 11:46:03;;;;;;;8.43;0.93;;;19.30;16.60;;;;;;4344453;33;20106;-41
2021/03/30 11:48:29;;;;;;;4.00;0.82;;;19.30;17.20;;;;;;4342647;33;20067;-41
2021/03/30 11:50:56;;;;;;;18.17;2.28;;;19.40;17.50;;;;;;4342659;33;20132;-41
2021/03/30 11:53:22;;;;;;;121.22;9.20;;;19.50;17.90;;;;;;4343852;33;20149;-40
2021/03/30 11:55:49;;;;;;;3.28;0.57;;;19.60;18.40;;;;;;4344624;32;20225;-43
2021/03/30 11:58:15;;;;;;;3.17;0.70;;;19.70;18.30;;;;;;4343833;33;20050;-41
2021/03/30 12:00:42;;;;;;;7.47;1.50;;;19.70;17.50;;;;;;4344348;33;20094;-42
2021/03/30 12:03:08;;;;;;;6.10;0.65;;;19.60;17.60;;;;;;4342719;33;20123;-42
2021/03/30 12:05:35;;;;;;;4.12;0.60;;;19.60;17.30;;;;;;4344055;33;20612;-43
2021/03/30 12:08:01;;;;;;;24.77;2.15;;;19.60;17.60;;;;;;4344051;33;20602;-41
2021/03/30 12:10:28;;;;;;;6.95;0.80;;;19.60;17.60;;;;;;4343848;33;20070;-41
2021/03/30 12:12:54;;;;;;;13.40;1.05;;;19.50;17.70;;;;;;4343441;33;20486;-41
2021/03/30 12:15:21;;;;;;;25.98;1.77;;;19.40;17.30;;;;;;4344284;33;20059;-42
2021/03/30 12:17:48;;;;;;;10.00;1.17;;;19.40;17.70;;;;;;4343630;33;20474;-41
2021/03/30 12:20:15;;;;;;;6.68;1.20;;;19.30;17.70;;;;;;4343592;33;20606;-41
2021/03/30 12:22:42;;;;;;;3.37;1.77;;;19.30;18.00;;;;;;4342287;33;20070;-41
2021/03/30 12:25:09;;;;;;;1.45;0.52;;;19.30;17.40;;;;;;4343497;33;20483;-41
2021/03/30 12:27:36;;;;;;;7.12;1.10;;;19.40;17.20;;;;;;4343945;33;20169;-44
2021/03/30 12:30:05;;;;;;;4.53;2.20;;;19.50;17.20;;;;;;4343623;33;20090;-41
2021/03/30 12:32:31;;;;;;;7.47;0.80;;;19.60;17.60;;;;;;4343278;33;20085;-41
2021/03/30 12:34:58;;;;;;;10.55;1.20;;;19.60;16.90;;;;;;4346162;32;20128;-41
2021/03/30 12:37:24;;;;;;;15.60;1.37;;;19.60;16.60;;;;;;4358724;32;20066;-39
2021/03/30 12:39:50;;;;;;;3.72;1.10;;;19.60;16.90;;;;;;4356834;32;20552;-42
2021/03/30 12:42:17;;;;;;;17.77;2.10;;;19.60;17.00;;;;;;4358090;32;20166;-42
2021/03/30 12:44:43;;;;;;;17.08;2.60;;;19.70;17.00;;;;;;4358189;32;20070;-41
2021/03/30 12:47:10;;;;;;;17.17;2.80;;;19.70;20.10;;;;;;4358596;32;20070;-41
2021/03/30 12:49:37;;;;;;;31.73;2.78;;;19.80;21.30;;;;;;4358386;32;20540;-41
2021/03/30 12:52:04;;;;;;;27.33;2.87;;;19.80;21.50;;;;;;4357328;32;20062;-40
2021/03/30 12:54:30;;;;;;;13.25;1.62;;;19.80;21.80;;;;;;4356831;32;20059;-40
2021/03/30 12:56:57;;;;;;;10.80;1.98;;;19.70;21.80;;;;;;4358373;32;20086;-40
2021/03/30 12:59:23;;;;;;;9.05;2.17;;;19.60;21.10;;;;;;4356957;32;20074;-41
2021/03/30 13:01:50;;;;;;;28.15;2.75;;;19.60;21.40;;;;;;4358255;32;20080;-42
2021/03/30 13:04:16;;;;;;;44.53;3.92;;;19.60;21.50;;;;;;4357644;32;20177;-42
2021/03/30 13:06:43;;;;;;;43.60;2.97;;;19.60;21.80;;;;;;4357975;32;20066;-40